createdAt,value
2022-12-06T00:09:41.403Z,102837.25
2022-12-06T00:19:44.226Z,102830.84
2022-12-06T00:29:48.781Z,102824.03
2022-12-06T00:39:51.831Z,102816.75
2022-12-06T00:49:56.455Z,102810.84
2022-12-06T00:59:59.955Z,102803.97
2022-12-06T01:10:05.201Z,102797.25
2022-12-06T01:20:09.472Z,102790.75
2022-12-06T01:30:14.260Z,102782.38
2022-12-06T01:40:17.537Z,102775.25
2022-12-06T01:50:26.156Z,102767.09
2022-12-06T02:00:29.271Z,102759.88
2022-12-06T02:10:33.900Z,102752.69
2022-12-06T02:20:44.156Z,102747.59
2022-12-06T02:30:54.715Z,102743.00
2022-12-06T02:41:01.414Z,102730.28
2022-12-06T02:51:09.632Z,102725.06
2022-12-06T03:01:15.116Z,102718.22
2022-12-06T03:11:19.672Z,102710.50
2022-12-06T03:21:27.025Z,102705.50
2022-12-06T03:31:34.241Z,102701.56
2022-12-06T03:41:41.266Z,102698.06
2022-12-06T03:51:48.676Z,102694.22
2022-12-06T04:01:51.755Z,102690.84
2022-12-06T04:11:56.356Z,102686.09
2022-12-06T04:22:17.665Z,102681.34
2022-12-06T04:32:40.537Z,102675.84
2022-12-06T04:43:06.811Z,102665.34
2022-12-06T04:53:14.061Z,102661.97
2022-12-06T05:03:17.284Z,102658.53
2022-12-06T05:13:22.008Z,102653.28
2022-12-06T05:23:25.017Z,102639.25
2022-12-06T05:33:29.688Z,102636.03
2022-12-06T05:43:32.780Z,102631.31
2022-12-06T05:53:37.472Z,102615.22
2022-12-06T06:03:45.706Z,102609.31
2022-12-06T06:13:51.895Z,102604.88
2022-12-06T06:23:57.140Z,102600.72
2022-12-06T06:34:01.687Z,102592.88
2022-12-06T06:44:05.025Z,102584.25
2022-12-06T06:54:09.698Z,102575.53
2022-12-06T07:04:12.535Z,102570.28
2022-12-06T07:14:17.054Z,102565.44
2022-12-06T07:24:20.506Z,102562.94
2022-12-06T07:34:24.944Z,102562.84
2022-12-06T07:44:46.080Z,102558.63
2022-12-06T07:54:50.695Z,102554.63
2022-12-06T08:04:54.463Z,102553.38
2022-12-06T08:14:59.991Z,102548.25
2022-12-06T08:25:03.293Z,102543.81
2022-12-06T08:35:08.790Z,102539.25
2022-12-06T08:45:11.859Z,102522.88
2022-12-06T08:55:16.422Z,102521.00
2022-12-06T09:05:19.341Z,102518.16
2022-12-06T09:15:23.665Z,102514.97
2022-12-06T09:25:26.614Z,102511.88
2022-12-06T09:35:31.333Z,102506.22
2022-12-06T09:46:07.701Z,102496.34
2022-12-06T09:56:21.136Z,102494.06
2022-12-06T10:06:28.317Z,102493.41
2022-12-06T10:16:45.296Z,102488.88
2022-12-06T10:26:50.708Z,102485.66
2022-12-06T10:37:10.169Z,102486.03
2022-12-06T10:47:18.945Z,102485.09
2022-12-06T10:57:31.731Z,102481.53
2022-12-06T11:07:40.261Z,102479.88
2022-12-06T11:17:48.673Z,102476.47
2022-12-06T11:27:54.577Z,102473.41
2022-12-06T11:38:02.466Z,102469.63
2022-12-06T11:48:14.715Z,102467.03
2022-12-06T11:58:27.301Z,102466.41
2022-12-06T12:08:32.785Z,102465.19
2022-12-06T12:18:40.495Z,102464.78
2022-12-06T12:28:45.363Z,102461.03
2022-12-06T12:38:55.857Z,102458.94
2022-12-06T12:49:23.291Z,102449.84
2022-12-06T12:59:35.824Z,102448.78
2022-12-06T13:09:45.641Z,102445.41
2022-12-06T13:19:53.416Z,102446.94
2022-12-06T13:30:02.746Z,102446.81
2022-12-06T13:40:46.344Z,102437.88
2022-12-06T13:50:54.623Z,102438.31
2022-12-06T14:00:59.120Z,102437.22
2022-12-06T14:11:07.252Z,102439.25
2022-12-06T14:21:21.256Z,102440.88
2022-12-06T14:31:32.139Z,102436.25
2022-12-06T14:41:57.842Z,102435.72
2022-12-06T14:52:01.148Z,102437.06
2022-12-06T15:02:22.275Z,102438.09
2022-12-06T15:12:46.846Z,102433.84
2022-12-06T15:22:51.136Z,102434.78
2022-12-06T15:32:55.098Z,102435.00
2022-12-06T15:43:02.616Z,102434.69
2022-12-06T15:53:05.938Z,102435.13
2022-12-06T16:03:10.431Z,102431.91
2022-12-06T16:13:22.058Z,102431.88
2022-12-06T16:24:12.597Z,102431.13
2022-12-06T16:34:10.552Z,102431.19
2022-12-06T16:44:14.782Z,102424.97
2022-12-06T16:55:37.011Z,102425.66
2022-12-06T17:05:20.052Z,102424.59
2022-12-06T17:15:23.514Z,102421.38
2022-12-06T17:25:27.913Z,102418.97
2022-12-06T17:35:32.327Z,102414.44
2022-12-06T17:45:37.058Z,102414.41
2022-12-06T17:55:41.651Z,102414.00
2022-12-06T18:05:48.258Z,102414.47
2022-12-06T18:15:51.783Z,102413.59
2022-12-06T18:25:57.724Z,102412.94
2022-12-06T18:36:01.397Z,102413.66
2022-12-06T18:46:08.981Z,102403.69
2022-12-06T18:56:15.221Z,102402.69
2022-12-06T19:06:22.831Z,102402.47
2022-12-06T19:16:28.120Z,102399.19
2022-12-06T19:49:48.559Z,102386.75
2022-12-06T19:59:53.976Z,102382.38
2022-12-06T20:09:58.365Z,102383.19
2022-12-06T20:20:02.314Z,102384.03
2022-12-06T20:30:09.607Z,102386.06
2022-12-06T20:40:13.403Z,102387.53
2022-12-06T20:50:17.825Z,102389.44
2022-12-06T21:00:21.778Z,102390.97
2022-12-06T21:10:25.955Z,102392.78
2022-12-06T21:20:28.791Z,102390.19
2022-12-06T21:30:33.046Z,102390.09
2022-12-06T21:40:36.977Z,102389.75
2022-12-06T21:50:41.170Z,102390.78
2022-12-06T22:00:43.938Z,102391.16
2022-12-06T22:10:48.305Z,102392.09
2022-12-06T22:21:01.914Z,102391.91
2022-12-06T22:31:11.129Z,102389.81
2022-12-06T22:41:14.187Z,102390.53
2022-12-06T22:51:21.211Z,102392.72
2022-12-06T23:01:25.500Z,102392.47
2022-12-06T23:11:31.384Z,102394.28
2022-12-06T23:21:36.360Z,102396.19
2022-12-06T23:31:43.044Z,102394.72
2022-12-06T23:41:46.321Z,102396.16
2022-12-06T23:51:50.738Z,102394.66
